createdAt,value
2022-12-27T00:00:45.261Z,93.51
2022-12-27T00:05:02.452Z,93.47
2022-12-27T00:09:19.312Z,93.35
2022-12-27T00:13:36.681Z,93.58
2022-12-27T00:17:53.539Z,93.25
2022-12-27T00:22:10.653Z,93.29
2022-12-27T00:26:33.697Z,93.22
2022-12-27T00:30:56.102Z,92.94
2022-12-27T00:35:12.947Z,93.23
2022-12-27T00:39:30.020Z,93.16
2022-12-27T00:43:47.461Z,92.94
2022-12-27T00:48:05.591Z,92.64
2022-12-27T00:52:22.566Z,92.76
2022-12-27T00:56:39.414Z,92.89
2022-12-27T01:01:05.965Z,92.77
2022-12-27T01:05:23.289Z,92.66
2022-12-27T01:09:40.540Z,92.62
2022-12-27T01:14:01.665Z,93.02
2022-12-27T01:18:18.777Z,92.61
2022-12-27T01:22:35.617Z,92.61
2022-12-27T01:26:52.813Z,92.49
2022-12-27T01:31:14.751Z,92.04
2022-12-27T01:35:31.899Z,91.72
2022-12-27T01:39:48.734Z,91.29
2022-12-27T01:44:52.431Z,92.23
2022-12-27T01:49:11.709Z,94.29
2022-12-27T15:42:33.052Z,70.87
2022-12-27T15:47:41.210Z,72.14
2022-12-27T15:52:25.152Z,71.30
2022-12-27T15:56:57.588Z,72.67
2022-12-27T16:01:23.868Z,72.83
2022-12-27T16:05:49.772Z,72.89
2022-12-27T16:10:32.014Z,73.07
2022-12-27T16:14:49.481Z,72.20
2022-12-27T16:19:40.926Z,72.68
2022-12-27T16:24:12.592Z,71.38
2022-12-27T16:28:32.471Z,70.99
2022-12-27T16:32:50.503Z,69.69
2022-12-27T16:37:24.617Z,70.26
2022-12-27T16:42:03.948Z,69.67
2022-12-27T16:46:27.962Z,69.65
2022-12-27T16:51:22.597Z,69.50
2022-12-27T16:56:03.651Z,69.72
2022-12-27T17:00:43.167Z,69.89
2022-12-27T17:05:01.193Z,70.30
2022-12-27T17:09:21.285Z,69.97
2022-12-27T17:13:47.966Z,69.61
2022-12-27T17:18:20.242Z,70.17
2022-12-27T17:22:39.193Z,70.36
2022-12-27T17:27:26.741Z,70.65
2022-12-27T17:32:21.361Z,71.19
2022-12-27T17:36:58.743Z,71.21
2022-12-27T17:41:57.191Z,70.76
2022-12-27T17:46:44.467Z,71.33
2022-12-27T17:51:10.481Z,70.91
2022-12-27T17:55:48.118Z,70.83
2022-12-27T18:00:06.968Z,70.84
2022-12-27T18:04:38.756Z,70.69
2022-12-27T18:08:56.058Z,71.41
2022-12-27T18:13:20.049Z,70.58
2022-12-27T18:17:50.773Z,71.03
2022-12-27T18:22:19.364Z,70.90
2022-12-27T18:26:41.284Z,71.22
2022-12-27T18:31:40.451Z,71.37
2022-12-27T18:36:06.175Z,70.95
2022-12-27T18:40:24.962Z,70.71
2022-12-27T18:44:57.863Z,71.16
2022-12-27T18:49:30.737Z,71.18
2022-12-27T18:53:49.181Z,71.48
2022-12-27T18:58:20.766Z,71.85
2022-12-27T19:02:38.128Z,71.93
2022-12-27T19:07:12.532Z,71.78
2022-12-27T19:11:36.070Z,72.25
2022-12-27T19:15:54.669Z,72.55
2022-12-27T19:20:26.093Z,72.15
2022-12-27T19:24:43.189Z,72.25
2022-12-27T19:29:14.044Z,72.58
2022-12-27T19:33:34.619Z,73.34
2022-12-27T19:37:51.697Z,74.42
2022-12-27T19:42:18.775Z,75.09
2022-12-27T19:46:35.826Z,74.98
2022-12-27T19:50:54.750Z,74.47
2022-12-27T19:55:18.952Z,75.10
2022-12-27T19:59:35.907Z,75.29
2022-12-27T20:03:52.978Z,76.42
2022-12-27T20:08:40.488Z,77.92
2022-12-27T20:12:57.566Z,76.98
2022-12-27T20:17:14.528Z,76.29
2022-12-27T20:21:31.725Z,76.23
2022-12-27T20:25:50.080Z,76.84
2022-12-27T20:30:07.861Z,77.88
2022-12-27T20:34:25.022Z,79.24
2022-12-27T20:38:41.862Z,79.15
2022-12-27T20:42:59.402Z,78.83
2022-12-27T20:47:16.285Z,78.20
2022-12-27T20:51:33.753Z,77.92
2022-12-27T20:55:59.137Z,78.12
2022-12-27T21:00:17.431Z,77.86
2022-12-27T21:04:34.621Z,77.89
2022-12-27T21:08:56.721Z,77.77
2022-12-27T21:13:14.949Z,77.97
2022-12-27T21:17:31.921Z,79.07
2022-12-27T21:21:49.023Z,78.95
2022-12-27T21:26:12.797Z,78.66
2022-12-27T21:30:29.847Z,78.76
2022-12-27T21:34:46.757Z,78.51
2022-12-27T21:39:05.983Z,78.97
2022-12-27T21:43:22.969Z,79.29
2022-12-27T21:47:39.971Z,79.20
2022-12-27T21:51:56.988Z,79.40
2022-12-27T21:56:16.519Z,79.16
2022-12-27T22:00:33.418Z,79.33
2022-12-27T22:04:50.490Z,78.93
2022-12-27T22:09:10.582Z,79.16
2022-12-27T22:13:27.617Z,79.99
2022-12-27T22:17:44.474Z,80.51
2022-12-27T22:22:01.577Z,80.42
2022-12-27T22:26:22.301Z,80.51
2022-12-27T22:30:40.838Z,79.98
2022-12-27T22:34:57.780Z,79.56
2022-12-27T22:39:14.893Z,79.84
2022-12-27T22:43:31.874Z,80.24
2022-12-27T22:47:48.976Z,80.61
2022-12-27T22:52:05.887Z,80.87
2022-12-27T22:56:26.518Z,81.07
2022-12-27T23:00:44.771Z,80.79
2022-12-27T23:05:02.877Z,80.85
2022-12-27T23:09:19.890Z,81.76
2022-12-27T23:13:37.126Z,82.19
2022-12-27T23:17:54.005Z,82.55
2022-12-27T23:22:10.996Z,83.05
2022-12-27T23:26:28.562Z,83.89
2022-12-27T23:30:45.660Z,83.96
2022-12-27T23:35:02.680Z,84.80
2022-12-27T23:39:20.361Z,85.00
2022-12-27T23:43:56.204Z,85.25
2022-12-27T23:48:13.652Z,84.94
2022-12-27T23:52:30.568Z,83.22
2022-12-27T23:56:47.556Z,82.34
